sensor_id;sensor_type;location;lat;lon;timestamp;P1;durP1;ratioP1;P2;durP2;ratioP2
8803;SDS011;4438;50.890;4.726;2023-08-06T00:01:59;3.00;;;2.03;;
8803;SDS011;4438;50.890;4.726;2023-08-06T00:04:25;3.00;;;1.70;;
8803;SDS011;4438;50.890;4.726;2023-08-06T00:06:51;3.10;;;1.90;;
8803;SDS011;4438;50.890;4.726;2023-08-06T00:09:17;4.83;;;1.83;;
8803;SDS011;4438;50.890;4.726;2023-08-06T00:11:43;2.73;;;1.90;;
8803;SDS011;4438;50.890;4.726;2023-08-06T00:14:11;2.83;;;1.50;;
8803;SDS011;4438;50.890;4.726;2023-08-06T00:16:40;2.20;;;1.63;;
8803;SDS011;4438;50.890;4.726;2023-08-06T00:19:06;2.30;;;1.80;;
8803;SDS011;4438;50.890;4.726;2023-08-06T00:21:32;3.33;;;1.70;;
8803;SDS011;4438;50.890;4.726;2023-08-06T00:23:58;3.00;;;1.80;;
8803;SDS011;4438;50.890;4.726;2023-08-06T00:26:24;2.03;;;1.70;;
8803;SDS011;4438;50.890;4.726;2023-08-06T00:28:50;2.23;;;1.80;;
8803;SDS011;4438;50.890;4.726;2023-08-06T00:31:16;2.00;;;1.80;;
8803;SDS011;4438;50.890;4.726;2023-08-06T00:33:42;2.10;;;1.73;;
8803;SDS011;4438;50.890;4.726;2023-08-06T00:36:08;2.50;;;1.87;;
8803;SDS011;4438;50.890;4.726;2023-08-06T00:38:34;2.53;;;1.80;;
8803;SDS011;4438;50.890;4.726;2023-08-06T00:41:01;2.20;;;1.60;;
8803;SDS011;4438;50.890;4.726;2023-08-06T00:43:27;3.00;;;1.67;;
8803;SDS011;4438;50.890;4.726;2023-08-06T00:45:53;3.30;;;2.00;;
8803;SDS011;4438;50.890;4.726;2023-08-06T00:48:19;2.07;;;1.80;;
8803;SDS011;4438;50.890;4.726;2023-08-06T00:50:45;2.67;;;1.83;;
8803;SDS011;4438;50.890;4.726;2023-08-06T00:53:11;3.00;;;1.77;;
8803;SDS011;4438;50.890;4.726;2023-08-06T00:55:37;3.00;;;1.90;;
8803;SDS011;4438;50.890;4.726;2023-08-06T00:58:04;3.23;;;1.90;;
8803;SDS011;4438;50.890;4.726;2023-08-06T01:00:30;2.00;;;1.60;;
8803;SDS011;4438;50.890;4.726;2023-08-06T01:02:56;3.70;;;2.00;;
8803;SDS011;4438;50.890;4.726;2023-08-06T01:05:22;2.87;;;2.13;;
8803;SDS011;4438;50.890;4.726;2023-08-06T01:07:51;2.07;;;1.80;;
8803;SDS011;4438;50.890;4.726;2023-08-06T01:10:23;2.40;;;2.00;;
8803;SDS011;4438;50.890;4.726;2023-08-06T01:13:02;2.40;;;2.07;;
8803;SDS011;4438;50.890;4.726;2023-08-06T01:15:32;3.27;;;2.30;;
8803;SDS011;4438;50.890;4.726;2023-08-06T01:18:00;4.43;;;2.73;;
8803;SDS011;4438;50.890;4.726;2023-08-06T01:20:30;2.80;;;2.43;;
8803;SDS011;4438;50.890;4.726;2023-08-06T01:22:56;3.70;;;2.53;;
8803;SDS011;4438;50.890;4.726;2023-08-06T01:25:24;3.03;;;2.47;;
8803;SDS011;4438;50.890;4.726;2023-08-06T01:27:52;3.57;;;2.40;;
8803;SDS011;4438;50.890;4.726;2023-08-06T01:30:28;3.10;;;2.50;;
8803;SDS011;4438;50.890;4.726;2023-08-06T01:32:58;3.60;;;3.00;;
8803;SDS011;4438;50.890;4.726;2023-08-06T01:35:25;3.83;;;3.10;;
8803;SDS011;4438;50.890;4.726;2023-08-06T01:37:52;3.13;;;2.70;;
8803;SDS011;4438;50.890;4.726;2023-08-06T01:40:21;2.97;;;2.60;;
8803;SDS011;4438;50.890;4.726;2023-08-06T01:42:47;2.93;;;2.40;;
8803;SDS011;4438;50.890;4.726;2023-08-06T01:45:13;4.80;;;3.40;;
8803;SDS011;4438;50.890;4.726;2023-08-06T01:47:39;5.60;;;3.17;;
8803;SDS011;4438;50.890;4.726;2023-08-06T01:50:06;5.03;;;3.47;;
8803;SDS011;4438;50.890;4.726;2023-08-06T01:52:32;4.27;;;3.10;;
8803;SDS011;4438;50.890;4.726;2023-08-06T01:54:58;4.17;;;3.50;;
8803;SDS011;4438;50.890;4.726;2023-08-06T01:57:24;3.73;;;3.03;;
8803;SDS011;4438;50.890;4.726;2023-08-06T01:59:50;4.70;;;3.50;;
8803;SDS011;4438;50.890;4.726;2023-08-06T02:02:16;3.77;;;3.23;;
8803;SDS011;4438;50.890;4.726;2023-08-06T02:04:42;5.93;;;4.30;;
8803;SDS011;4438;50.890;4.726;2023-08-06T02:07:08;4.77;;;3.63;;
8803;SDS011;4438;50.890;4.726;2023-08-06T02:09:34;5.10;;;3.70;;
8803;SDS011;4438;50.890;4.726;2023-08-06T02:12:00;6.00;;;3.60;;
8803;SDS011;4438;50.890;4.726;2023-08-06T02:14:27;5.60;;;4.27;;
8803;SDS011;4438;50.890;4.726;2023-08-06T02:16:53;5.50;;;4.33;;
8803;SDS011;4438;50.890;4.726;2023-08-06T02:19:19;4.70;;;4.00;;
8803;SDS011;4438;50.890;4.726;2023-08-06T02:21:45;5.23;;;4.67;;
8803;SDS011;4438;50.890;4.726;2023-08-06T02:24:11;6.23;;;4.77;;
8803;SDS011;4438;50.890;4.726;2023-08-06T02:26:37;6.33;;;4.20;;
8803;SDS011;4438;50.890;4.726;2023-08-06T02:29:03;5.73;;;4.53;;
8803;SDS011;4438;50.890;4.726;2023-08-06T02:31:29;7.60;;;4.50;;
8803;SDS011;4438;50.890;4.726;2023-08-06T02:33:55;4.77;;;4.27;;
8803;SDS011;4438;50.890;4.726;2023-08-06T02:36:23;4.80;;;4.03;;
8803;SDS011;4438;50.890;4.726;2023-08-06T02:38:49;4.40;;;4.10;;
8803;SDS011;4438;50.890;4.726;2023-08-06T02:41:15;5.00;;;4.50;;
8803;SDS011;4438;50.890;4.726;2023-08-06T02:43:41;5.63;;;4.70;;
8803;SDS011;4438;50.890;4.726;2023-08-06T02:46:08;4.50;;;4.10;;
8803;SDS011;4438;50.890;4.726;2023-08-06T02:48:34;4.57;;;4.07;;
8803;SDS011;4438;50.890;4.726;2023-08-06T02:51:00;6.27;;;5.03;;
8803;SDS011;4438;50.890;4.726;2023-08-06T02:53:26;6.97;;;5.27;;
8803;SDS011;4438;50.890;4.726;2023-08-06T02:55:52;6.47;;;4.87;;
8803;SDS011;4438;50.890;4.726;2023-08-06T02:58:18;6.37;;;5.00;;
8803;SDS011;4438;50.890;4.726;2023-08-06T03:00:58;6.60;;;5.03;;
8803;SDS011;4438;50.890;4.726;2023-08-06T03:03:24;5.67;;;5.10;;
8803;SDS011;4438;50.890;4.726;2023-08-06T03:05:51;5.53;;;4.63;;
8803;SDS011;4438;50.890;4.726;2023-08-06T03:08:18;9.37;;;5.37;;
8803;SDS011;4438;50.890;4.726;2023-08-06T03:10:47;5.13;;;4.57;;
8803;SDS011;4438;50.890;4.726;2023-08-06T03:13:13;6.77;;;4.60;;
8803;SDS011;4438;50.890;4.726;2023-08-06T03:15:39;5.30;;;4.50;;
8803;SDS011;4438;50.890;4.726;2023-08-06T03:18:05;6.43;;;4.40;;
8803;SDS011;4438;50.890;4.726;2023-08-06T03:20:32;5.53;;;4.93;;
8803;SDS011;4438;50.890;4.726;2023-08-06T03:22:58;5.23;;;4.70;;
8803;SDS011;4438;50.890;4.726;2023-08-06T03:25:24;5.80;;;5.30;;
8803;SDS011;4438;50.890;4.726;2023-08-06T03:27:50;6.83;;;5.17;;
8803;SDS011;4438;50.890;4.726;2023-08-06T03:30:16;6.87;;;4.80;;
8803;SDS011;4438;50.890;4.726;2023-08-06T03:32:42;9.83;;;5.80;;
8803;SDS011;4438;50.890;4.726;2023-08-06T03:35:08;6.27;;;5.10;;
8803;SDS011;4438;50.890;4.726;2023-08-06T03:37:34;7.40;;;5.90;;
8803;SDS011;4438;50.890;4.726;2023-08-06T03:40:00;6.57;;;5.70;;
8803;SDS011;4438;50.890;4.726;2023-08-06T03:42:26;7.33;;;5.33;;
8803;SDS011;4438;50.890;4.726;2023-08-06T03:44:52;9.50;;;5.93;;
8803;SDS011;4438;50.890;4.726;2023-08-06T03:47:18;7.80;;;5.80;;
8803;SDS011;4438;50.890;4.726;2023-08-06T03:49:44;7.43;;;6.13;;
8803;SDS011;4438;50.890;4.726;2023-08-06T03:52:10;7.30;;;6.60;;
8803;SDS011;4438;50.890;4.726;2023-08-06T03:54:36;9.00;;;8.03;;
8803;SDS011;4438;50.890;4.726;2023-08-06T03:57:02;10.00;;;8.17;;
8803;SDS011;4438;50.890;4.726;2023-08-06T03:59:29;9.43;;;7.07;;
8803;SDS011;4438;50.890;4.726;2023-08-06T04:01:55;11.23;;;8.60;;
8803;SDS011;4438;50.890;4.726;2023-08-06T04:04:21;9.67;;;8.67;;
8803;SDS011;4438;50.890;4.726;2023-08-06T04:06:47;11.50;;;8.63;;
8803;SDS011;4438;50.890;4.726;2023-08-06T04:09:13;12.07;;;9.20;;
8803;SDS011;4438;50.890;4.726;2023-08-06T04:11:39;11.67;;;9.03;;
8803;SDS011;4438;50.890;4.726;2023-08-06T04:14:05;11.70;;;9.00;;
8803;SDS011;4438;50.890;4.726;2023-08-06T04:16:31;13.37;;;9.07;;
8803;SDS011;4438;50.890;4.726;2023-08-06T04:18:57;10.13;;;8.67;;
8803;SDS011;4438;50.890;4.726;2023-08-06T04:21:24;11.43;;;9.33;;
8803;SDS011;4438;50.890;4.726;2023-08-06T04:23:50;12.77;;;9.67;;
8803;SDS011;4438;50.890;4.726;2023-08-06T04:26:16;12.00;;;10.00;;
8803;SDS011;4438;50.890;4.726;2023-08-06T04:28:42;11.50;;;9.90;;
8803;SDS011;4438;50.890;4.726;2023-08-06T04:31:08;12.50;;;10.77;;
8803;SDS011;4438;50.890;4.726;2023-08-06T04:33:34;12.40;;;10.57;;
8803;SDS011;4438;50.890;4.726;2023-08-06T04:36:00;13.73;;;10.63;;
8803;SDS011;4438;50.890;4.726;2023-08-06T04:38:26;12.30;;;10.73;;
8803;SDS011;4438;50.890;4.726;2023-08-06T04:40:52;10.77;;;9.37;;
8803;SDS011;4438;50.890;4.726;2023-08-06T04:43:18;10.63;;;9.53;;
8803;SDS011;4438;50.890;4.726;2023-08-06T04:45:49;9.93;;;8.93;;
8803;SDS011;4438;50.890;4.726;2023-08-06T04:48:15;8.60;;;7.63;;
8803;SDS011;4438;50.890;4.726;2023-08-06T04:50:48;5.23;;;4.40;;
8803;SDS011;4438;50.890;4.726;2023-08-06T04:53:14;5.23;;;3.70;;
8803;SDS011;4438;50.890;4.726;2023-08-06T04:55:40;3.37;;;3.07;;
8803;SDS011;4438;50.890;4.726;2023-08-06T04:58:06;2.97;;;2.67;;
8803;SDS011;4438;50.890;4.726;2023-08-06T05:00:33;2.53;;;2.20;;
8803;SDS011;4438;50.890;4.726;2023-08-06T05:02:59;2.10;;;1.80;;
8803;SDS011;4438;50.890;4.726;2023-08-06T05:05:26;2.63;;;1.77;;
8803;SDS011;4438;50.890;4.726;2023-08-06T05:07:53;2.60;;;1.67;;
8803;SDS011;4438;50.890;4.726;2023-08-06T05:10:19;1.60;;;1.50;;
8803;SDS011;4438;50.890;4.726;2023-08-06T05:12:45;2.60;;;1.60;;
8803;SDS011;4438;50.890;4.726;2023-08-06T05:15:12;4.10;;;2.23;;
8803;SDS011;4438;50.890;4.726;2023-08-06T05:17:38;3.50;;;3.20;;
8803;SDS011;4438;50.890;4.726;2023-08-06T05:20:04;4.77;;;4.03;;
8803;SDS011;4438;50.890;4.726;2023-08-06T05:22:30;5.10;;;4.60;;
8803;SDS011;4438;50.890;4.726;2023-08-06T05:24:57;5.83;;;5.33;;
8803;SDS011;4438;50.890;4.726;2023-08-06T05:27:23;5.87;;;5.37;;
8803;SDS011;4438;50.890;4.726;2023-08-06T05:29:49;8.47;;;6.23;;
8803;SDS011;4438;50.890;4.726;2023-08-06T05:32:15;6.90;;;6.20;;
8803;SDS011;4438;50.890;4.726;2023-08-06T05:34:41;7.10;;;6.33;;
8803;SDS011;4438;50.890;4.726;2023-08-06T05:37:07;7.70;;;6.90;;
8803;SDS011;4438;50.890;4.726;2023-08-06T05:39:34;8.73;;;6.63;;
8803;SDS011;4438;50.890;4.726;2023-08-06T05:42:00;9.63;;;5.87;;
8803;SDS011;4438;50.890;4.726;2023-08-06T05:44:26;6.13;;;5.53;;
8803;SDS011;4438;50.890;4.726;2023-08-06T05:46:52;5.93;;;5.30;;
8803;SDS011;4438;50.890;4.726;2023-08-06T05:49:18;5.60;;;4.93;;
8803;SDS011;4438;50.890;4.726;2023-08-06T05:51:45;4.63;;;4.23;;
8803;SDS011;4438;50.890;4.726;2023-08-06T05:54:11;6.17;;;4.73;;
8803;SDS011;4438;50.890;4.726;2023-08-06T05:56:37;5.53;;;3.83;;
8803;SDS011;4438;50.890;4.726;2023-08-06T05:59:03;5.63;;;4.17;;
8803;SDS011;4438;50.890;4.726;2023-08-06T06:01:29;7.13;;;3.87;;
8803;SDS011;4438;50.890;4.726;2023-08-06T06:03:55;6.33;;;3.80;;
8803;SDS011;4438;50.890;4.726;2023-08-06T06:06:21;5.87;;;3.70;;
8803;SDS011;4438;50.890;4.726;2023-08-06T06:08:47;7.90;;;3.50;;
8803;SDS011;4438;50.890;4.726;2023-08-06T06:11:13;3.73;;;3.17;;
8803;SDS011;4438;50.890;4.726;2023-08-06T06:13:39;6.00;;;3.80;;
8803;SDS011;4438;50.890;4.726;2023-08-06T06:16:05;5.27;;;3.40;;
8803;SDS011;4438;50.890;4.726;2023-08-06T06:18:31;5.80;;;3.47;;
8803;SDS011;4438;50.890;4.726;2023-08-06T06:20:57;5.53;;;3.43;;
8803;SDS011;4438;50.890;4.726;2023-08-06T06:23:23;4.20;;;3.40;;
8803;SDS011;4438;50.890;4.726;2023-08-06T06:25:50;5.00;;;3.17;;
8803;SDS011;4438;50.890;4.726;2023-08-06T06:28:19;8.03;;;3.87;;
8803;SDS011;4438;50.890;4.726;2023-08-06T06:30:45;6.73;;;3.90;;
8803;SDS011;4438;50.890;4.726;2023-08-06T06:33:11;6.03;;;3.57;;
8803;SDS011;4438;50.890;4.726;2023-08-06T06:35:37;6.60;;;3.40;;
8803;SDS011;4438;50.890;4.726;2023-08-06T06:38:03;6.97;;;3.90;;
8803;SDS011;4438;50.890;4.726;2023-08-06T06:40:29;7.67;;;3.67;;
8803;SDS011;4438;50.890;4.726;2023-08-06T06:42:55;5.70;;;3.80;;
8803;SDS011;4438;50.890;4.726;2023-08-06T06:45:22;6.70;;;3.70;;
8803;SDS011;4438;50.890;4.726;2023-08-06T06:47:48;7.07;;;3.90;;
8803;SDS011;4438;50.890;4.726;2023-08-06T06:50:14;6.00;;;3.70;;
8803;SDS011;4438;50.890;4.726;2023-08-06T06:52:41;5.53;;;3.70;;
8803;SDS011;4438;50.890;4.726;2023-08-06T06:55:07;5.77;;;4.07;;
8803;SDS011;4438;50.890;4.726;2023-08-06T06:57:33;7.53;;;3.83;;
8803;SDS011;4438;50.890;4.726;2023-08-06T06:59:59;7.53;;;4.17;;
8803;SDS011;4438;50.890;4.726;2023-08-06T07:02:25;6.10;;;3.53;;
8803;SDS011;4438;50.890;4.726;2023-08-06T07:04:51;5.80;;;3.90;;
8803;SDS011;4438;50.890;4.726;2023-08-06T07:07:17;6.10;;;4.47;;
8803;SDS011;4438;50.890;4.726;2023-08-06T07:09:44;4.43;;;3.63;;
8803;SDS011;4438;50.890;4.726;2023-08-06T07:12:10;6.67;;;4.17;;
8803;SDS011;4438;50.890;4.726;2023-08-06T07:14:36;7.20;;;3.80;;
8803;SDS011;4438;50.890;4.726;2023-08-06T07:17:02;6.43;;;3.73;;
8803;SDS011;4438;50.890;4.726;2023-08-06T07:19:28;6.30;;;3.93;;
8803;SDS011;4438;50.890;4.726;2023-08-06T07:21:54;5.53;;;3.80;;
8803;SDS011;4438;50.890;4.726;2023-08-06T07:24:21;8.47;;;4.30;;
8803;SDS011;4438;50.890;4.726;2023-08-06T07:26:47;6.57;;;3.80;;
8803;SDS011;4438;50.890;4.726;2023-08-06T07:29:13;6.77;;;4.10;;
8803;SDS011;4438;50.890;4.726;2023-08-06T07:31:44;5.10;;;3.80;;
8803;SDS011;4438;50.890;4.726;2023-08-06T07:34:11;5.73;;;3.90;;
8803;SDS011;4438;50.890;4.726;2023-08-06T07:36:37;7.73;;;4.53;;
8803;SDS011;4438;50.890;4.726;2023-08-06T07:39:03;6.80;;;4.10;;
8803;SDS011;4438;50.890;4.726;2023-08-06T07:41:31;7.43;;;3.93;;
8803;SDS011;4438;50.890;4.726;2023-08-06T07:43:57;7.80;;;3.83;;
8803;SDS011;4438;50.890;4.726;2023-08-06T07:46:23;7.30;;;3.93;;
8803;SDS011;4438;50.890;4.726;2023-08-06T07:48:49;7.07;;;3.20;;
8803;SDS011;4438;50.890;4.726;2023-08-06T07:51:15;4.53;;;3.03;;
8803;SDS011;4438;50.890;4.726;2023-08-06T07:53:41;5.90;;;3.23;;
8803;SDS011;4438;50.890;4.726;2023-08-06T07:56:07;8.70;;;3.23;;
8803;SDS011;4438;50.890;4.726;2023-08-06T07:58:33;7.93;;;3.13;;
8803;SDS011;4438;50.890;4.726;2023-08-06T08:01:00;5.40;;;3.00;;
8803;SDS011;4438;50.890;4.726;2023-08-06T08:03:26;7.30;;;3.07;;
8803;SDS011;4438;50.890;4.726;2023-08-06T08:05:54;5.60;;;2.70;;
8803;SDS011;4438;50.890;4.726;2023-08-06T08:08:24;6.30;;;2.63;;
8803;SDS011;4438;50.890;4.726;2023-08-06T08:10:50;5.23;;;2.37;;
8803;SDS011;4438;50.890;4.726;2023-08-06T08:13:16;8.50;;;2.53;;
8803;SDS011;4438;50.890;4.726;2023-08-06T08:15:42;6.40;;;2.13;;
8803;SDS011;4438;50.890;4.726;2023-08-06T08:18:08;7.57;;;2.60;;
8803;SDS011;4438;50.890;4.726;2023-08-06T08:20:34;5.90;;;2.87;;
8803;SDS011;4438;50.890;4.726;2023-08-06T08:23:01;4.23;;;1.83;;
8803;SDS011;4438;50.890;4.726;2023-08-06T08:25:27;7.20;;;2.30;;
8803;SDS011;4438;50.890;4.726;2023-08-06T08:27:54;7.43;;;2.30;;
8803;SDS011;4438;50.890;4.726;2023-08-06T08:30:20;6.13;;;2.10;;
8803;SDS011;4438;50.890;4.726;2023-08-06T08:32:47;6.33;;;2.60;;
8803;SDS011;4438;50.890;4.726;2023-08-06T08:35:14;5.07;;;2.23;;
8803;SDS011;4438;50.890;4.726;2023-08-06T08:37:41;6.50;;;2.57;;
8803;SDS011;4438;50.890;4.726;2023-08-06T08:40:08;8.30;;;2.40;;
8803;SDS011;4438;50.890;4.726;2023-08-06T08:42:34;6.00;;;2.60;;
8803;SDS011;4438;50.890;4.726;2023-08-06T08:45:01;5.00;;;2.30;;
8803;SDS011;4438;50.890;4.726;2023-08-06T08:47:28;6.23;;;3.20;;
8803;SDS011;4438;50.890;4.726;2023-08-06T08:49:54;4.93;;;2.67;;
8803;SDS011;4438;50.890;4.726;2023-08-06T08:52:21;6.60;;;2.60;;
8803;SDS011;4438;50.890;4.726;2023-08-06T08:54:48;5.43;;;2.50;;
8803;SDS011;4438;50.890;4.726;2023-08-06T08:57:17;6.07;;;2.73;;
8803;SDS011;4438;50.890;4.726;2023-08-06T08:59:43;4.77;;;2.23;;
8803;SDS011;4438;50.890;4.726;2023-08-06T09:02:10;5.13;;;2.60;;
8803;SDS011;4438;50.890;4.726;2023-08-06T09:04:37;6.73;;;2.97;;
8803;SDS011;4438;50.890;4.726;2023-08-06T09:07:03;3.80;;;2.30;;
8803;SDS011;4438;50.890;4.726;2023-08-06T09:09:31;6.50;;;2.30;;
8803;SDS011;4438;50.890;4.726;2023-08-06T09:12:01;3.50;;;2.27;;
8803;SDS011;4438;50.890;4.726;2023-08-06T09:14:27;4.47;;;2.20;;
8803;SDS011;4438;50.890;4.726;2023-08-06T09:16:54;4.70;;;2.70;;
8803;SDS011;4438;50.890;4.726;2023-08-06T09:19:20;5.13;;;2.50;;
8803;SDS011;4438;50.890;4.726;2023-08-06T09:21:46;5.50;;;2.87;;
8803;SDS011;4438;50.890;4.726;2023-08-06T09:24:15;4.40;;;2.53;;
8803;SDS011;4438;50.890;4.726;2023-08-06T09:26:42;6.43;;;2.80;;
8803;SDS011;4438;50.890;4.726;2023-08-06T09:29:09;8.90;;;2.53;;
8803;SDS011;4438;50.890;4.726;2023-08-06T09:31:43;5.60;;;2.27;;
8803;SDS011;4438;50.890;4.726;2023-08-06T09:34:16;5.63;;;2.13;;
8803;SDS011;4438;50.890;4.726;2023-08-06T09:36:49;5.97;;;2.30;;
8803;SDS011;4438;50.890;4.726;2023-08-06T09:39:19;7.97;;;2.63;;
8803;SDS011;4438;50.890;4.726;2023-08-06T09:41:46;6.03;;;2.40;;
8803;SDS011;4438;50.890;4.726;2023-08-06T09:44:19;7.53;;;2.77;;
8803;SDS011;4438;50.890;4.726;2023-08-06T09:46:56;5.63;;;2.73;;
8803;SDS011;4438;50.890;4.726;2023-08-06T09:49:26;6.57;;;2.67;;
8803;SDS011;4438;50.890;4.726;2023-08-06T09:51:53;6.23;;;2.33;;
8803;SDS011;4438;50.890;4.726;2023-08-06T09:54:23;5.40;;;2.63;;
8803;SDS011;4438;50.890;4.726;2023-08-06T09:56:51;4.00;;;2.10;;
8803;SDS011;4438;50.890;4.726;2023-08-06T09:59:17;5.57;;;2.33;;
8803;SDS011;4438;50.890;4.726;2023-08-06T10:01:44;4.97;;;2.27;;
8803;SDS011;4438;50.890;4.726;2023-08-06T10:04:11;3.97;;;2.47;;
8803;SDS011;4438;50.890;4.726;2023-08-06T10:06:41;3.13;;;2.10;;
8803;SDS011;4438;50.890;4.726;2023-08-06T10:09:07;4.83;;;2.13;;
8803;SDS011;4438;50.890;4.726;2023-08-06T10:11:34;4.03;;;2.13;;
8803;SDS011;4438;50.890;4.726;2023-08-06T10:14:47;4.80;;;2.00;;
8803;SDS011;4438;50.890;4.726;2023-08-06T10:16:48;4.27;;;2.17;;
8803;SDS011;4438;50.890;4.726;2023-08-06T10:19:15;2.63;;;1.90;;
8803;SDS011;4438;50.890;4.726;2023-08-06T10:21:41;4.07;;;2.33;;
8803;SDS011;4438;50.890;4.726;2023-08-06T10:24:07;2.80;;;2.00;;
8803;SDS011;4438;50.890;4.726;2023-08-06T10:26:36;4.67;;;2.20;;
8803;SDS011;4438;50.890;4.726;2023-08-06T10:31:54;7.13;;;2.87;;
8803;SDS011;4438;50.890;4.726;2023-08-06T10:34:20;6.00;;;2.87;;
8803;SDS011;4438;50.890;4.726;2023-08-06T10:36:46;5.13;;;2.37;;
8803;SDS011;4438;50.890;4.726;2023-08-06T10:39:15;4.57;;;2.63;;
8803;SDS011;4438;50.890;4.726;2023-08-06T10:41:42;6.67;;;3.17;;
8803;SDS011;4438;50.890;4.726;2023-08-06T10:44:11;6.37;;;2.50;;
8803;SDS011;4438;50.890;4.726;2023-08-06T10:46:37;5.43;;;2.67;;
8803;SDS011;4438;50.890;4.726;2023-08-06T10:49:04;6.00;;;2.60;;
8803;SDS011;4438;50.890;4.726;2023-08-06T10:51:32;6.30;;;3.20;;
8803;SDS011;4438;50.890;4.726;2023-08-06T10:53:58;5.60;;;2.50;;
8803;SDS011;4438;50.890;4.726;2023-08-06T10:56:25;6.77;;;2.43;;
8803;SDS011;4438;50.890;4.726;2023-08-06T10:58:55;7.47;;;2.40;;
8803;SDS011;4438;50.890;4.726;2023-08-06T11:01:22;4.67;;;2.07;;
8803;SDS011;4438;50.890;4.726;2023-08-06T11:03:48;5.57;;;2.27;;
8803;SDS011;4438;50.890;4.726;2023-08-06T11:06:22;4.17;;;2.53;;
8803;SDS011;4438;50.890;4.726;2023-08-06T11:08:49;4.23;;;2.07;;
8803;SDS011;4438;50.890;4.726;2023-08-06T11:11:16;4.53;;;2.50;;
8803;SDS011;4438;50.890;4.726;2023-08-06T11:13:46;5.57;;;2.57;;
8803;SDS011;4438;50.890;4.726;2023-08-06T11:16:12;6.17;;;2.70;;
8803;SDS011;4438;50.890;4.726;2023-08-06T11:18:39;4.97;;;2.70;;
8803;SDS011;4438;50.890;4.726;2023-08-06T11:21:05;5.30;;;2.50;;
8803;SDS011;4438;50.890;4.726;2023-08-06T11:23:33;5.63;;;2.43;;
8803;SDS011;4438;50.890;4.726;2023-08-06T11:25:59;4.90;;;2.60;;
8803;SDS011;4438;50.890;4.726;2023-08-06T11:28:25;5.40;;;2.43;;
8803;SDS011;4438;50.890;4.726;2023-08-06T11:30:52;7.20;;;2.60;;
8803;SDS011;4438;50.890;4.726;2023-08-06T11:33:22;6.33;;;2.73;;
8803;SDS011;4438;50.890;4.726;2023-08-06T11:35:50;7.03;;;2.80;;
8803;SDS011;4438;50.890;4.726;2023-08-06T11:38:16;4.97;;;2.83;;
8803;SDS011;4438;50.890;4.726;2023-08-06T11:40:52;7.70;;;3.10;;
8803;SDS011;4438;50.890;4.726;2023-08-06T11:43:19;8.53;;;3.20;;
8803;SDS011;4438;50.890;4.726;2023-08-06T11:45:47;4.63;;;2.40;;
8803;SDS011;4438;50.890;4.726;2023-08-06T11:48:13;5.17;;;2.50;;
8803;SDS011;4438;50.890;4.726;2023-08-06T11:50:39;5.70;;;2.60;;
8803;SDS011;4438;50.890;4.726;2023-08-06T11:53:05;5.40;;;2.50;;
8803;SDS011;4438;50.890;4.726;2023-08-06T11:55:32;5.87;;;2.73;;
8803;SDS011;4438;50.890;4.726;2023-08-06T11:58:03;4.60;;;2.70;;
8803;SDS011;4438;50.890;4.726;2023-08-06T12:00:32;4.97;;;2.60;;
8803;SDS011;4438;50.890;4.726;2023-08-06T12:02:58;4.77;;;2.60;;
8803;SDS011;4438;50.890;4.726;2023-08-06T12:05:31;4.20;;;2.50;;
8803;SDS011;4438;50.890;4.726;2023-08-06T12:07:59;4.43;;;2.67;;
8803;SDS011;4438;50.890;4.726;2023-08-06T12:10:25;6.27;;;2.63;;
8803;SDS011;4438;50.890;4.726;2023-08-06T12:12:52;7.40;;;2.83;;
8803;SDS011;4438;50.890;4.726;2023-08-06T12:15:19;9.30;;;2.97;;
8803;SDS011;4438;50.890;4.726;2023-08-06T12:17:45;5.47;;;2.80;;
8803;SDS011;4438;50.890;4.726;2023-08-06T12:20:11;7.00;;;2.90;;
8803;SDS011;4438;50.890;4.726;2023-08-06T12:22:37;4.87;;;2.20;;
8803;SDS011;4438;50.890;4.726;2023-08-06T12:25:05;5.47;;;2.50;;
8803;SDS011;4438;50.890;4.726;2023-08-06T12:27:36;9.43;;;2.40;;
8803;SDS011;4438;50.890;4.726;2023-08-06T12:30:02;4.50;;;2.77;;
8803;SDS011;4438;50.890;4.726;2023-08-06T12:32:28;4.83;;;2.43;;
8803;SDS011;4438;50.890;4.726;2023-08-06T12:34:54;6.90;;;2.60;;
8803;SDS011;4438;50.890;4.726;2023-08-06T12:37:21;5.63;;;2.67;;
8803;SDS011;4438;50.890;4.726;2023-08-06T12:39:48;7.73;;;2.60;;
8803;SDS011;4438;50.890;4.726;2023-08-06T12:42:14;6.43;;;2.60;;
8803;SDS011;4438;50.890;4.726;2023-08-06T12:44:40;9.67;;;3.33;;
8803;SDS011;4438;50.890;4.726;2023-08-06T12:47:06;5.83;;;2.40;;
8803;SDS011;4438;50.890;4.726;2023-08-06T12:49:33;6.60;;;2.53;;
8803;SDS011;4438;50.890;4.726;2023-08-06T12:51:59;5.57;;;2.90;;
8803;SDS011;4438;50.890;4.726;2023-08-06T12:54:25;6.77;;;2.53;;
8803;SDS011;4438;50.890;4.726;2023-08-06T12:56:52;6.77;;;2.70;;
8803;SDS011;4438;50.890;4.726;2023-08-06T12:59:18;10.47;;;2.73;;
8803;SDS011;4438;50.890;4.726;2023-08-06T13:01:44;5.63;;;2.93;;
8803;SDS011;4438;50.890;4.726;2023-08-06T13:04:10;5.13;;;2.50;;
8803;SDS011;4438;50.890;4.726;2023-08-06T13:06:37;5.83;;;2.70;;
8803;SDS011;4438;50.890;4.726;2023-08-06T13:09:07;4.83;;;2.80;;
8803;SDS011;4438;50.890;4.726;2023-08-06T13:11:34;6.70;;;2.43;;
8803;SDS011;4438;50.890;4.726;2023-08-06T13:14:10;5.57;;;2.60;;
8803;SDS011;4438;50.890;4.726;2023-08-06T13:16:37;6.70;;;2.50;;
8803;SDS011;4438;50.890;4.726;2023-08-06T13:19:04;5.63;;;2.17;;
8803;SDS011;4438;50.890;4.726;2023-08-06T13:21:32;7.43;;;2.57;;
8803;SDS011;4438;50.890;4.726;2023-08-06T13:23:59;5.20;;;2.17;;
8803;SDS011;4438;50.890;4.726;2023-08-06T13:26:26;8.27;;;2.60;;
8803;SDS011;4438;50.890;4.726;2023-08-06T13:28:52;9.03;;;2.53;;
8803;SDS011;4438;50.890;4.726;2023-08-06T13:31:18;7.90;;;2.60;;
8803;SDS011;4438;50.890;4.726;2023-08-06T13:33:44;5.30;;;2.60;;
8803;SDS011;4438;50.890;4.726;2023-08-06T13:36:10;6.93;;;2.40;;
8803;SDS011;4438;50.890;4.726;2023-08-06T13:38:36;5.40;;;2.83;;
8803;SDS011;4438;50.890;4.726;2023-08-06T13:41:02;8.33;;;2.83;;
8803;SDS011;4438;50.890;4.726;2023-08-06T13:43:28;7.57;;;2.50;;
8803;SDS011;4438;50.890;4.726;2023-08-06T13:45:54;6.50;;;2.87;;
8803;SDS011;4438;50.890;4.726;2023-08-06T13:48:20;4.53;;;2.30;;
8803;SDS011;4438;50.890;4.726;2023-08-06T13:50:46;6.63;;;3.00;;
8803;SDS011;4438;50.890;4.726;2023-08-06T13:53:13;5.67;;;2.47;;
8803;SDS011;4438;50.890;4.726;2023-08-06T13:55:39;5.27;;;2.50;;
8803;SDS011;4438;50.890;4.726;2023-08-06T13:58:05;8.20;;;2.47;;
8803;SDS011;4438;50.890;4.726;2023-08-06T14:00:31;8.20;;;2.60;;
8803;SDS011;4438;50.890;4.726;2023-08-06T14:02:57;5.03;;;2.40;;
8803;SDS011;4438;50.890;4.726;2023-08-06T14:05:23;7.97;;;2.33;;
8803;SDS011;4438;50.890;4.726;2023-08-06T14:07:49;5.80;;;2.33;;
8803;SDS011;4438;50.890;4.726;2023-08-06T14:10:15;4.20;;;2.37;;
8803;SDS011;4438;50.890;4.726;2023-08-06T14:12:41;6.90;;;2.33;;
8803;SDS011;4438;50.890;4.726;2023-08-06T14:15:07;8.00;;;2.80;;
8803;SDS011;4438;50.890;4.726;2023-08-06T14:17:34;4.87;;;2.07;;
8803;SDS011;4438;50.890;4.726;2023-08-06T14:20:00;7.37;;;2.57;;
8803;SDS011;4438;50.890;4.726;2023-08-06T14:22:28;6.30;;;2.30;;
8803;SDS011;4438;50.890;4.726;2023-08-06T14:24:56;8.23;;;2.60;;
8803;SDS011;4438;50.890;4.726;2023-08-06T14:27:22;7.53;;;3.00;;
8803;SDS011;4438;50.890;4.726;2023-08-06T14:29:48;5.67;;;2.43;;
8803;SDS011;4438;50.890;4.726;2023-08-06T14:32:14;4.53;;;2.40;;
8803;SDS011;4438;50.890;4.726;2023-08-06T14:34:43;4.83;;;2.60;;
8803;SDS011;4438;50.890;4.726;2023-08-06T14:37:09;6.53;;;2.50;;
8803;SDS011;4438;50.890;4.726;2023-08-06T14:39:35;4.97;;;2.47;;
8803;SDS011;4438;50.890;4.726;2023-08-06T14:42:01;5.80;;;2.57;;
8803;SDS011;4438;50.890;4.726;2023-08-06T14:44:27;6.70;;;2.87;;
8803;SDS011;4438;50.890;4.726;2023-08-06T14:46:53;6.73;;;2.77;;
8803;SDS011;4438;50.890;4.726;2023-08-06T14:49:19;6.10;;;2.73;;
8803;SDS011;4438;50.890;4.726;2023-08-06T14:51:45;7.63;;;3.30;;
8803;SDS011;4438;50.890;4.726;2023-08-06T14:54:12;7.43;;;2.70;;
8803;SDS011;4438;50.890;4.726;2023-08-06T14:56:38;6.73;;;2.80;;
8803;SDS011;4438;50.890;4.726;2023-08-06T14:59:04;7.63;;;3.00;;
8803;SDS011;4438;50.890;4.726;2023-08-06T15:01:30;7.57;;;2.77;;
8803;SDS011;4438;50.890;4.726;2023-08-06T15:03:56;7.33;;;3.10;;
8803;SDS011;4438;50.890;4.726;2023-08-06T15:06:22;7.63;;;2.73;;
8803;SDS011;4438;50.890;4.726;2023-08-06T15:08:48;8.23;;;2.93;;
8803;SDS011;4438;50.890;4.726;2023-08-06T15:11:14;7.53;;;2.93;;
8803;SDS011;4438;50.890;4.726;2023-08-06T15:13:40;8.27;;;3.00;;
8803;SDS011;4438;50.890;4.726;2023-08-06T15:16:06;5.93;;;2.53;;